createdAt,value
2019-02-22T00:02:27.204Z,10.68
2019-02-22T00:07:03.012Z,13.95
2019-02-22T00:11:38.786Z,19.87
2019-02-22T00:16:14.548Z,12.15
2019-02-22T00:20:50.337Z,15.75
2019-02-22T00:25:26.089Z,17.45
2019-02-22T00:30:01.892Z,10.65
2019-02-22T00:34:37.716Z,19.07
2019-02-22T00:39:13.822Z,13.25
2019-02-22T00:43:49.589Z,11.30
2019-02-22T00:48:25.441Z,9.48
2019-02-22T00:53:01.201Z,14.45
2019-02-22T00:57:37.011Z,19.82
2019-02-22T01:02:12.780Z,11.60
2019-02-22T01:06:48.571Z,10.95
2019-02-22T01:11:24.397Z,7.58
2019-02-22T01:16:00.246Z,17.17
2019-02-22T01:20:36.018Z,7.92
2019-02-22T01:25:11.793Z,8.75
2019-02-22T01:29:47.564Z,13.58
2019-02-22T01:34:23.337Z,9.93
2019-02-22T01:38:59.141Z,17.45
2019-02-22T01:43:34.925Z,8.95
2019-02-22T01:48:10.702Z,19.77
2019-02-22T01:52:46.496Z,15.75
2019-02-22T01:57:22.264Z,16.23
2019-02-22T02:01:58.208Z,16.10
2019-02-22T02:06:33.973Z,14.40
2019-02-22T02:11:09.836Z,9.18
2019-02-22T02:15:45.611Z,14.80
2019-02-22T02:20:21.416Z,8.35
2019-02-22T02:24:57.233Z,14.80
2019-02-22T02:29:33.022Z,15.38
2019-02-22T02:34:08.780Z,16.85
2019-02-22T02:38:45.657Z,16.45
2019-02-22T02:43:21.421Z,9.83
2019-02-22T02:47:57.222Z,14.63
2019-02-22T02:52:32.978Z,14.38
2019-02-22T02:57:08.829Z,11.90
2019-02-22T03:01:44.604Z,14.20
2019-02-22T03:06:45.272Z,13.20
2019-02-22T03:11:21.450Z,9.60
2019-02-22T03:15:57.507Z,14.40
2019-02-22T03:20:34.505Z,14.03
2019-02-22T03:25:10.920Z,15.65
2019-02-22T03:29:46.750Z,19.00
2019-02-22T03:34:22.553Z,11.40
2019-02-22T03:38:58.373Z,10.43
2019-02-22T03:43:34.232Z,11.22
2019-02-22T03:48:10.001Z,14.58
2019-02-22T03:52:54.969Z,8.30
2019-02-22T03:57:30.765Z,8.25
2019-02-22T04:02:06.617Z,11.00
2019-02-22T04:06:42.403Z,16.50
2019-02-22T04:11:20.146Z,11.35
2019-02-22T04:15:55.901Z,15.32
2019-02-22T04:20:31.882Z,13.22
2019-02-22T04:25:07.887Z,11.40
2019-02-22T04:29:43.707Z,12.73
2019-02-22T04:34:19.522Z,12.88
2019-02-22T04:38:55.299Z,13.05
2019-02-22T04:43:31.054Z,14.45
2019-02-22T04:48:06.825Z,15.88
2019-02-22T04:52:42.813Z,14.60
2019-02-22T04:57:18.645Z,14.78
2019-02-22T05:01:54.475Z,11.40
2019-02-22T05:06:30.282Z,13.43
2019-02-22T05:11:06.073Z,12.70
2019-02-22T05:15:42.043Z,15.60
2019-02-22T05:20:17.817Z,19.37
2019-02-22T05:24:53.612Z,14.43
2019-02-22T05:29:29.494Z,11.33
2019-02-22T05:34:05.317Z,14.23
2019-02-22T05:38:41.406Z,8.68
2019-02-22T05:43:17.233Z,14.43
2019-02-22T05:47:52.982Z,10.20
2019-02-22T05:52:28.764Z,17.62
2019-02-22T05:57:04.537Z,12.98
2019-02-22T06:01:40.317Z,13.35
2019-02-22T06:06:16.106Z,17.42
2019-02-22T06:10:51.880Z,18.62
2019-02-22T06:15:27.677Z,17.17
2019-02-22T06:20:03.464Z,24.90
2019-02-22T06:24:39.300Z,14.25
2019-02-22T06:29:15.165Z,14.85
2019-02-22T06:33:50.929Z,13.75
2019-02-22T06:38:28.220Z,24.05
2019-02-22T06:43:02.301Z,19.20
2019-02-22T06:47:38.073Z,12.98
2019-02-22T06:52:13.837Z,23.12
2019-02-22T06:56:49.684Z,12.45
2019-02-22T07:01:25.550Z,20.75
2019-02-22T07:06:01.412Z,16.73
2019-02-22T07:11:11.482Z,17.50
2019-02-22T07:15:47.292Z,22.48
2019-02-22T07:20:23.080Z,17.40
2019-02-22T07:24:58.856Z,31.40
2019-02-22T07:29:35.779Z,21.02
2019-02-22T07:34:11.621Z,12.33
2019-02-22T07:38:47.418Z,12.82
2019-02-22T07:43:23.257Z,27.02
2019-02-22T07:47:59.047Z,12.75
2019-02-22T07:52:34.832Z,14.13
2019-02-22T07:57:10.644Z,17.27
2019-02-22T08:01:47.978Z,19.15
2019-02-22T08:06:23.974Z,13.83
2019-02-22T08:10:59.728Z,17.98
2019-02-22T08:15:35.572Z,16.55
2019-02-22T08:20:11.383Z,24.23
2019-02-22T08:24:47.176Z,14.93
2019-02-22T08:29:22.980Z,21.35
2019-02-22T08:33:58.768Z,21.50
2019-02-22T08:38:34.530Z,15.25
2019-02-22T08:43:10.325Z,22.40
2019-02-22T08:47:46.084Z,22.17
2019-02-22T08:52:21.873Z,24.85
2019-02-22T08:56:57.638Z,27.52
2019-02-22T09:01:35.579Z,20.68
2019-02-22T09:06:10.905Z,17.90
2019-02-22T09:10:57.324Z,18.35
2019-02-22T09:15:25.002Z,19.32
2019-02-22T09:20:00.785Z,13.32
2019-02-22T09:24:36.612Z,24.30
2019-02-22T09:29:12.486Z,19.48
2019-02-22T09:33:48.277Z,18.67
2019-02-22T09:38:24.052Z,23.52
2019-02-22T09:42:59.808Z,14.53
2019-02-22T09:47:35.602Z,19.17
2019-02-22T09:52:11.366Z,16.48
2019-02-22T09:56:47.177Z,14.95
2019-02-22T10:01:23.017Z,18.45
2019-02-22T10:05:58.810Z,20.37
2019-02-22T10:10:34.582Z,20.25
2019-02-22T10:15:10.710Z,13.58
2019-02-22T10:19:46.464Z,19.50
2019-02-22T10:24:22.261Z,18.15
2019-02-22T10:28:58.057Z,20.92
2019-02-22T10:33:36.969Z,19.12
2019-02-22T10:38:13.519Z,17.90
2019-02-22T10:42:49.576Z,18.25
2019-02-22T10:47:25.364Z,27.40
2019-02-22T10:52:01.713Z,20.48
2019-02-22T11:01:51.865Z,32.75
2019-02-22T11:06:27.647Z,35.30
2019-02-22T11:11:03.444Z,21.07
2019-02-22T11:15:39.225Z,26.87
2019-02-22T11:20:15.061Z,18.37
2019-02-22T11:24:50.821Z,21.12
2019-02-22T11:29:26.629Z,20.40
2019-02-22T11:34:02.415Z,20.37
2019-02-22T11:38:38.265Z,21.00
2019-02-22T11:43:14.092Z,22.70
2019-02-22T11:47:49.911Z,22.35
2019-02-22T11:52:25.692Z,28.73
2019-02-22T11:57:01.464Z,20.82
2019-02-22T12:01:37.433Z,26.27
2019-02-22T12:06:13.244Z,24.67
2019-02-22T12:10:49.044Z,17.60
2019-02-22T12:15:24.909Z,19.52
2019-02-22T12:20:00.761Z,17.07
2019-02-22T12:24:36.557Z,24.67
2019-02-22T12:29:12.345Z,16.80
2019-02-22T12:33:48.219Z,30.48
2019-02-22T12:38:24.002Z,22.27
2019-02-22T12:42:59.858Z,21.73
2019-02-22T12:47:35.645Z,28.07
2019-02-22T12:52:11.452Z,18.65
2019-02-22T12:56:57.491Z,20.27
2019-02-22T13:01:24.795Z,18.73
2019-02-22T13:06:00.568Z,21.17
2019-02-22T13:10:36.380Z,19.25
2019-02-22T13:15:14.371Z,25.10
2019-02-22T13:19:50.320Z,31.77
2019-02-22T13:24:26.089Z,23.52
2019-02-22T13:29:01.890Z,24.65
2019-02-22T13:33:37.676Z,19.82
2019-02-22T13:38:13.475Z,21.77
2019-02-22T13:42:49.243Z,29.00
2019-02-22T13:47:25.996Z,22.90
2019-02-22T13:52:01.770Z,18.75
2019-02-22T13:56:37.565Z,21.90
2019-02-22T14:01:13.733Z,21.25
2019-02-22T14:05:49.614Z,28.25
2019-02-22T14:10:26.905Z,25.70
2019-02-22T14:15:02.731Z,25.80
2019-02-22T14:19:38.513Z,21.85
2019-02-22T14:24:14.343Z,21.42
2019-02-22T14:28:50.111Z,20.27
2019-02-22T14:33:25.892Z,30.02
2019-02-22T14:38:01.673Z,23.22
2019-02-22T14:42:38.546Z,25.72
2019-02-22T14:47:14.322Z,25.95
2019-02-22T14:51:50.232Z,27.65
2019-02-22T14:56:25.997Z,23.92
2019-02-22T15:01:01.789Z,31.27
2019-02-22T15:05:37.553Z,29.15
2019-02-22T15:10:13.561Z,25.30
2019-02-22T15:14:49.349Z,30.97
2019-02-22T15:19:25.141Z,26.95
2019-02-22T15:24:00.915Z,26.12
2019-02-22T15:28:36.704Z,34.33
2019-02-22T15:33:12.482Z,25.52
2019-02-22T15:37:48.296Z,27.20
2019-02-22T15:42:24.075Z,22.40
2019-02-22T15:47:11.103Z,24.67
2019-02-22T15:51:39.293Z,25.00
2019-02-22T15:56:13.060Z,28.23
2019-02-22T16:00:48.855Z,32.05
2019-02-22T16:05:27.976Z,46.37
2019-02-22T16:10:04.144Z,25.92
2019-02-22T16:14:39.933Z,27.95
2019-02-22T16:19:15.737Z,25.62
2019-02-22T16:23:51.530Z,26.97
2019-02-22T16:28:27.289Z,30.15
2019-02-22T16:33:03.104Z,31.73
2019-02-22T16:37:38.909Z,27.45
2019-02-22T16:42:14.689Z,27.90
2019-02-22T16:46:50.468Z,21.12
2019-02-22T16:51:26.297Z,22.05
2019-02-22T16:56:02.097Z,30.70
2019-02-22T17:00:37.938Z,35.78
2019-02-22T17:05:15.061Z,27.35
2019-02-22T17:09:50.849Z,26.82
2019-02-22T17:14:26.624Z,28.05
2019-02-22T17:19:02.401Z,28.77
2019-02-22T17:23:38.220Z,40.40
2019-02-22T17:28:13.985Z,38.20
2019-02-22T17:32:49.743Z,49.55
2019-02-22T17:37:25.531Z,27.55
2019-02-22T17:42:01.308Z,22.42
2019-02-22T17:46:37.094Z,31.82
2019-02-22T17:51:12.877Z,26.00
2019-02-22T17:55:48.672Z,31.27
2019-02-22T18:00:25.159Z,25.92
2019-02-22T18:05:01.288Z,32.50
2019-02-22T18:09:37.065Z,27.93
2019-02-22T18:14:12.869Z,27.37
2019-02-22T18:23:23.293Z,32.25
2019-02-22T18:27:59.058Z,27.58
2019-02-22T18:32:34.853Z,26.20
2019-02-22T18:37:10.628Z,26.95
2019-02-22T18:41:46.409Z,25.20
2019-02-22T18:46:22.172Z,21.90
2019-02-22T18:50:58.028Z,24.00
2019-02-22T18:55:33.795Z,33.28
2019-02-22T19:00:13.474Z,28.90
2019-02-22T19:04:49.245Z,29.12
2019-02-22T19:09:25.401Z,26.97
2019-02-22T19:14:01.172Z,25.90
2019-02-22T19:18:36.977Z,33.95
2019-02-22T19:23:12.736Z,24.65
2019-02-22T19:27:48.545Z,25.43
2019-02-22T19:32:24.322Z,23.60
2019-02-22T19:37:00.189Z,25.00
2019-02-22T19:41:35.992Z,25.40
2019-02-22T19:46:11.787Z,23.92
2019-02-22T19:50:47.592Z,20.43
2019-02-22T19:55:23.418Z,19.40
2019-02-22T19:59:59.189Z,21.30
2019-02-22T20:04:34.975Z,18.30
2019-02-22T20:09:10.742Z,26.27
2019-02-22T20:13:46.556Z,28.45
2019-02-22T20:18:22.329Z,31.02
2019-02-22T20:22:58.123Z,29.23
2019-02-22T20:27:33.903Z,26.45
2019-02-22T20:32:09.721Z,32.83
2019-02-22T20:36:45.496Z,30.88
2019-02-22T20:41:21.309Z,30.05
2019-02-22T20:45:57.142Z,30.50
2019-02-22T20:50:33.281Z,31.17
2019-02-22T20:55:09.388Z,31.52
2019-02-22T20:59:45.169Z,29.45
2019-02-22T21:04:20.946Z,27.48
2019-02-22T21:08:56.737Z,28.65
2019-02-22T21:13:32.522Z,29.70
2019-02-22T21:18:16.010Z,29.12
2019-02-22T21:22:47.084Z,30.88
2019-02-22T21:27:22.922Z,28.95
2019-02-22T21:31:58.940Z,21.52
2019-02-22T21:36:35.007Z,29.23
2019-02-22T21:41:11.322Z,27.90
2019-02-22T21:45:47.174Z,25.77
2019-02-22T21:50:22.950Z,30.85
2019-02-22T21:54:58.761Z,28.92
2019-02-22T21:59:34.541Z,35.23
2019-02-22T22:04:10.330Z,28.50
2019-02-22T22:08:46.180Z,30.30
2019-02-22T22:13:21.964Z,25.43
2019-02-22T22:17:57.742Z,25.72
2019-02-22T22:22:33.558Z,22.85
2019-02-22T22:27:09.392Z,24.60
2019-02-22T22:31:45.207Z,22.55
2019-02-22T22:36:20.988Z,20.92
2019-02-22T22:40:56.860Z,24.83
2019-02-22T22:45:32.659Z,22.45
2019-02-22T22:50:10.978Z,25.43
2019-02-22T22:54:46.743Z,19.45
2019-02-22T22:59:22.799Z,25.87
2019-02-22T23:03:58.860Z,19.70
2019-02-22T23:08:34.648Z,20.65
2019-02-22T23:13:29.327Z,20.77
2019-02-22T23:18:05.106Z,20.48
2019-02-22T23:22:41.069Z,21.87
2019-02-22T23:27:16.854Z,21.50
2019-02-22T23:31:52.616Z,20.47
2019-02-22T23:36:28.400Z,18.75
2019-02-22T23:41:04.173Z,19.70
2019-02-22T23:45:39.977Z,13.97
2019-02-22T23:50:15.741Z,14.40
2019-02-22T23:54:51.601Z,12.10
2019-02-22T23:59:27.381Z,21.97
